createdAt,value
2022-12-18T00:00:43.871Z,29.38
2022-12-18T00:03:11.254Z,27.88
2022-12-18T00:05:38.563Z,23.23
2022-12-18T00:08:09.238Z,28.30
2022-12-18T00:10:36.816Z,28.08
2022-12-18T00:13:06.696Z,28.38
2022-12-18T00:15:37.127Z,28.90
2022-12-18T00:18:04.993Z,27.98
2022-12-18T00:20:32.157Z,27.45
2022-12-18T00:22:59.399Z,25.48
2022-12-18T00:25:26.563Z,29.25
2022-12-18T00:27:53.752Z,28.50
2022-12-18T00:30:20.974Z,26.95
2022-12-18T00:32:48.219Z,27.33
2022-12-18T00:35:15.361Z,26.65
2022-12-18T00:37:42.690Z,26.63
2022-12-18T00:40:09.898Z,28.45
2022-12-18T00:42:56.525Z,28.83
2022-12-18T00:45:25.537Z,26.52
2022-12-18T00:47:52.820Z,27.67
2022-12-18T00:50:20.064Z,26.88
2022-12-18T00:52:47.221Z,27.85
2022-12-18T00:55:14.451Z,28.52
2022-12-18T00:57:41.781Z,26.17
2022-12-18T01:00:09.019Z,27.40
2022-12-18T01:02:36.269Z,25.00
2022-12-18T01:05:03.593Z,25.52
2022-12-18T01:07:30.862Z,27.23
2022-12-18T01:09:59.205Z,24.77
2022-12-18T01:12:27.283Z,26.13
2022-12-18T01:14:54.515Z,26.10
2022-12-18T01:17:21.695Z,25.70
2022-12-18T01:19:48.917Z,22.75
2022-12-18T01:22:16.115Z,24.02
2022-12-18T01:24:43.283Z,22.60
2022-12-18T01:27:10.523Z,23.67
2022-12-18T01:29:37.880Z,21.58
2022-12-18T01:32:05.101Z,22.60
2022-12-18T01:34:32.436Z,22.50
2022-12-18T01:36:59.625Z,22.92
2022-12-18T01:39:27.119Z,22.67
2022-12-18T01:42:03.697Z,21.38
2022-12-18T01:44:30.984Z,21.77
2022-12-18T01:46:58.155Z,19.95
2022-12-18T01:49:25.407Z,22.58
2022-12-18T01:51:52.560Z,21.23
2022-12-18T01:54:20.075Z,21.20
2022-12-18T01:56:47.628Z,21.40
2022-12-18T01:59:14.882Z,21.17
2022-12-18T02:01:42.128Z,22.27
2022-12-18T02:04:10.103Z,20.23
2022-12-18T02:06:38.452Z,19.60
2022-12-18T02:09:05.851Z,20.95
2022-12-18T02:11:33.067Z,20.42
2022-12-18T02:14:00.258Z,19.45
2022-12-18T02:16:28.262Z,19.57
2022-12-18T02:18:55.470Z,19.15
2022-12-18T02:21:22.943Z,19.33
2022-12-18T04:34:54.943Z,17.88
2022-12-18T04:37:22.371Z,19.55
2022-12-18T04:39:51.039Z,18.88
2022-12-18T04:42:25.490Z,18.20
2022-12-18T04:44:52.718Z,16.13
2022-12-18T04:47:19.909Z,21.00
2022-12-18T04:49:47.184Z,16.98
2022-12-18T04:52:14.357Z,20.65
2022-12-18T04:54:41.569Z,21.85
2022-12-18T04:57:08.796Z,21.02
2022-12-18T04:59:36.033Z,21.92
2022-12-18T05:02:03.403Z,20.92
2022-12-18T05:04:30.771Z,20.60
2022-12-18T05:06:57.940Z,18.27
2022-12-18T05:09:25.224Z,21.83
2022-12-18T05:11:52.456Z,22.35
2022-12-18T05:14:19.687Z,23.35
2022-12-18T05:16:46.870Z,22.25
2022-12-18T05:19:14.120Z,25.80
2022-12-18T05:21:41.549Z,23.05
2022-12-18T05:24:08.859Z,24.35
2022-12-18T05:26:36.072Z,23.90
2022-12-18T05:29:03.309Z,24.60
2022-12-18T05:31:33.446Z,17.85
2022-12-18T05:34:03.234Z,22.77
2022-12-18T05:36:30.404Z,23.42
2022-12-18T05:38:57.672Z,25.02
2022-12-18T05:41:24.890Z,23.80
2022-12-18T05:43:52.130Z,25.55
2022-12-18T05:46:19.348Z,24.50
2022-12-18T05:48:46.702Z,23.05
2022-12-18T05:51:13.873Z,24.30
2022-12-18T05:53:41.526Z,25.38
2022-12-18T05:56:08.845Z,24.17
2022-12-18T05:58:36.100Z,22.48
2022-12-18T06:01:03.342Z,23.55
2022-12-18T06:03:33.904Z,24.95
2022-12-18T06:06:01.498Z,25.55
2022-12-18T06:08:28.867Z,26.75
2022-12-18T06:10:56.161Z,23.98
2022-12-18T06:13:23.348Z,22.42
2022-12-18T06:15:50.614Z,24.02
2022-12-18T06:18:17.877Z,23.52
2022-12-18T06:20:45.080Z,25.17
2022-12-18T06:23:12.628Z,22.98
2022-12-18T06:25:40.001Z,25.83
2022-12-18T06:28:07.218Z,23.58
2022-12-18T06:30:34.631Z,23.35
2022-12-18T06:33:01.874Z,22.83
2022-12-18T06:35:29.073Z,23.73
2022-12-18T06:37:56.353Z,22.75
2022-12-18T06:40:23.587Z,23.17
2022-12-18T06:42:51.344Z,26.45
2022-12-18T06:45:18.610Z,23.45
2022-12-18T06:47:45.851Z,23.60
2022-12-18T06:50:13.146Z,20.92
2022-12-18T06:52:41.239Z,23.00
2022-12-18T06:55:09.132Z,22.33
2022-12-18T06:57:36.339Z,23.90
2022-12-18T07:00:03.899Z,22.92
2022-12-18T07:02:31.224Z,22.27
2022-12-18T07:04:58.452Z,24.67
2022-12-18T07:07:25.631Z,21.85
2022-12-18T07:09:52.845Z,22.15
2022-12-18T07:12:20.099Z,21.52
2022-12-18T07:14:47.274Z,22.40
2022-12-18T07:17:14.509Z,23.55
2022-12-18T07:19:41.660Z,20.90
2022-12-18T07:22:08.832Z,24.00
2022-12-18T07:24:36.255Z,23.08
2022-12-18T07:27:03.591Z,22.40
2022-12-18T07:29:31.150Z,22.27
2022-12-18T07:31:58.459Z,24.77
2022-12-18T07:34:25.899Z,21.88
2022-12-18T07:36:53.132Z,23.33
2022-12-18T07:39:20.361Z,22.13
2022-12-18T07:42:07.545Z,21.38
2022-12-18T07:44:34.833Z,22.05
2022-12-18T07:47:01.976Z,22.48
2022-12-18T07:49:29.187Z,22.52
2022-12-18T07:51:56.351Z,22.25
2022-12-18T07:54:23.902Z,21.20
2022-12-18T07:56:51.051Z,22.60
2022-12-18T09:28:06.317Z,25.70
2022-12-18T09:30:35.136Z,25.02
2022-12-18T09:35:30.250Z,25.45
2022-12-18T09:37:57.478Z,24.50
2022-12-18T09:40:24.705Z,23.60
2022-12-18T09:42:51.873Z,26.48
2022-12-18T09:45:19.098Z,23.40
2022-12-18T09:47:46.246Z,22.38
2022-12-18T09:50:17.265Z,23.42
2022-12-18T09:52:44.802Z,22.85
2022-12-18T09:55:11.969Z,26.70
2022-12-18T09:57:39.384Z,23.55
2022-12-18T10:00:06.551Z,22.25
2022-12-18T10:02:38.968Z,22.88
2022-12-18T10:05:06.461Z,22.80
2022-12-18T10:07:33.651Z,21.30
2022-12-18T10:10:00.984Z,22.80
2022-12-18T10:12:28.179Z,20.88
2022-12-18T10:14:55.398Z,20.05
2022-12-18T10:17:22.586Z,20.20
2022-12-18T10:19:50.293Z,21.45
2022-12-18T10:22:18.177Z,21.83
2022-12-18T10:24:45.408Z,22.48
2022-12-18T10:27:12.604Z,22.77
2022-12-18T10:29:40.120Z,24.13
2022-12-18T10:32:07.430Z,17.65
2022-12-18T10:34:34.991Z,23.75
2022-12-18T10:37:02.249Z,22.35
2022-12-18T10:39:29.521Z,21.30
2022-12-18T10:41:56.691Z,22.52
2022-12-18T10:44:24.000Z,21.75
2022-12-18T10:46:51.264Z,23.05
2022-12-18T10:49:18.503Z,21.75
2022-12-18T10:51:45.709Z,23.15
2022-12-18T10:54:13.151Z,21.42
2022-12-18T10:56:40.501Z,23.52
2022-12-18T10:59:08.500Z,24.55
2022-12-18T11:01:35.784Z,24.00
2022-12-18T11:04:03.233Z,23.60
2022-12-18T11:06:30.467Z,21.95
2022-12-18T11:08:57.756Z,24.65
2022-12-18T11:11:24.952Z,25.77
2022-12-18T11:13:52.193Z,24.00
2022-12-18T11:16:19.382Z,25.85
2022-12-18T11:18:47.277Z,24.25
2022-12-18T11:21:14.557Z,25.08
2022-12-18T11:23:41.826Z,26.15
2022-12-18T11:26:09.344Z,29.35
2022-12-18T11:28:37.117Z,27.73
2022-12-18T11:31:04.497Z,25.52
2022-12-18T11:33:31.834Z,24.77
2022-12-18T11:35:59.001Z,36.72
2022-12-18T11:38:26.623Z,28.40
2022-12-18T11:40:53.841Z,27.10
2022-12-18T11:43:21.053Z,28.15
2022-12-18T11:45:48.274Z,27.88
2022-12-18T11:48:15.581Z,25.92
2022-12-18T11:50:43.839Z,27.08
2022-12-18T11:53:11.236Z,27.02
2022-12-18T11:55:38.734Z,28.33
2022-12-18T11:58:05.936Z,28.55
2022-12-18T12:00:33.242Z,30.83
2022-12-18T12:03:00.704Z,25.52
2022-12-18T12:05:27.947Z,28.08
2022-12-18T12:07:56.304Z,29.05
2022-12-18T12:10:23.455Z,30.73
2022-12-18T12:12:51.176Z,26.33
2022-12-18T12:15:18.373Z,30.73
2022-12-18T12:17:45.625Z,28.05
2022-12-18T12:20:12.810Z,28.20
2022-12-18T12:22:40.150Z,26.08
2022-12-18T12:25:10.249Z,26.75
2022-12-18T12:27:37.634Z,23.80
2022-12-18T12:30:05.819Z,24.17
2022-12-18T12:32:35.655Z,26.10
2022-12-18T12:35:09.289Z,24.15
2022-12-18T12:37:36.965Z,23.17
2022-12-18T12:40:15.218Z,23.63
2022-12-18T12:43:10.110Z,29.65
2022-12-18T12:45:37.636Z,27.60
2022-12-18T12:48:04.935Z,25.58
2022-12-18T12:50:33.189Z,26.30
2022-12-18T12:53:00.441Z,24.23
2022-12-18T12:55:27.733Z,27.85
2022-12-18T12:57:54.940Z,27.35
2022-12-18T13:00:23.234Z,26.13
2022-12-18T13:02:50.620Z,24.85
2022-12-18T13:05:20.490Z,24.17
2022-12-18T13:07:47.832Z,25.67
2022-12-18T13:13:02.386Z,22.65
2022-12-18T13:13:44.928Z,23.00
2022-12-18T13:15:30.585Z,23.23
2022-12-18T13:17:59.528Z,23.15
2022-12-18T13:20:26.752Z,21.80
2022-12-18T13:22:56.449Z,22.85
2022-12-18T13:25:23.973Z,22.48
2022-12-18T13:27:51.332Z,23.27
2022-12-18T13:30:19.065Z,22.77
2022-12-18T13:32:46.560Z,23.55
2022-12-18T13:35:14.320Z,22.92
2022-12-18T13:37:41.899Z,24.15
2022-12-18T13:40:09.932Z,22.25
2022-12-18T13:42:56.380Z,19.38
2022-12-18T13:45:23.693Z,21.08
2022-12-18T13:47:51.081Z,20.15
2022-12-18T13:50:18.552Z,22.63
2022-12-18T13:52:46.584Z,19.73
2022-12-18T13:55:14.060Z,19.10
2022-12-18T13:57:41.827Z,20.73
2022-12-18T14:00:09.321Z,18.50
2022-12-18T14:02:36.584Z,19.92
2022-12-18T14:05:04.127Z,18.50
2022-12-18T14:07:37.976Z,17.70
2022-12-18T14:10:41.283Z,19.30
2022-12-18T14:12:57.622Z,15.35
2022-12-18T14:15:28.187Z,20.83
2022-12-18T14:17:55.408Z,21.00
2022-12-18T14:20:22.563Z,17.75
2022-12-18T14:22:49.806Z,17.23
2022-12-18T14:25:19.639Z,18.85
2022-12-18T14:27:46.846Z,17.95
2022-12-18T14:30:14.097Z,18.27
2022-12-18T14:32:41.387Z,19.58
2022-12-18T14:35:10.850Z,19.10
2022-12-18T14:37:38.044Z,17.60
2022-12-18T14:40:10.889Z,18.15
2022-12-18T14:42:38.734Z,13.65
2022-12-18T14:45:13.983Z,15.80
2022-12-18T14:47:41.878Z,16.85
2022-12-18T14:50:09.085Z,17.48
2022-12-18T14:52:36.467Z,18.23
2022-12-18T14:55:03.690Z,21.90
2022-12-18T14:57:30.971Z,15.88
2022-12-18T14:59:58.182Z,19.63
2022-12-18T15:02:25.621Z,21.13
2022-12-18T15:04:54.441Z,17.98
2022-12-18T15:07:21.635Z,17.95
2022-12-18T15:09:48.996Z,17.42
2022-12-18T15:12:16.183Z,16.48
2022-12-18T15:14:43.724Z,15.07
2022-12-18T15:17:10.919Z,15.77
2022-12-18T15:19:38.169Z,18.30
2022-12-18T15:22:06.850Z,17.00
2022-12-18T15:24:34.338Z,14.48
2022-12-18T15:27:01.596Z,15.10
2022-12-18T15:29:28.809Z,15.23
2022-12-18T15:31:56.036Z,13.43
2022-12-18T15:34:23.468Z,16.05
2022-12-18T15:36:50.634Z,14.57
2022-12-18T15:39:17.928Z,14.63
2022-12-18T15:42:05.184Z,13.77
2022-12-18T15:44:32.470Z,15.25
2022-12-18T15:46:59.626Z,13.13
2022-12-18T15:49:27.015Z,12.93
2022-12-18T15:51:54.463Z,12.18
2022-12-18T15:54:41.825Z,13.02
2022-12-18T15:57:24.404Z,13.20
2022-12-18T15:59:51.737Z,12.68
2022-12-18T16:02:19.388Z,12.52
2022-12-18T16:04:49.675Z,11.70
2022-12-18T16:07:18.164Z,11.65
2022-12-18T16:09:52.372Z,10.18
2022-12-18T16:12:19.812Z,10.20
2022-12-18T16:14:47.085Z,12.30
2022-12-18T16:17:14.986Z,10.68
2022-12-18T16:19:42.270Z,10.65
2022-12-18T16:22:09.501Z,10.40
2022-12-18T16:24:37.575Z,8.93
2022-12-18T16:27:05.553Z,8.57
2022-12-18T16:29:32.708Z,8.55
2022-12-18T16:31:59.977Z,7.63
2022-12-18T16:34:29.174Z,7.50
2022-12-18T16:37:03.135Z,7.55
2022-12-18T16:39:32.966Z,6.30
2022-12-18T16:42:00.200Z,6.38
2022-12-18T16:44:29.825Z,5.65
2022-12-18T16:47:02.716Z,6.68
2022-12-18T16:49:30.045Z,5.68
2022-12-18T16:51:57.293Z,6.30
2022-12-18T16:54:24.585Z,5.68
2022-12-18T16:56:52.249Z,6.15
2022-12-18T16:59:19.455Z,6.43
2022-12-18T17:01:47.406Z,6.72
2022-12-18T17:04:14.844Z,6.97
2022-12-18T17:06:42.208Z,7.25
2022-12-18T17:09:09.720Z,14.68
2022-12-18T17:11:37.022Z,8.98
2022-12-18T17:14:04.286Z,7.35
2022-12-18T17:16:31.579Z,8.18
2022-12-18T17:18:59.407Z,8.45
2022-12-18T17:21:26.564Z,7.60
2022-12-18T17:23:53.795Z,8.80
2022-12-18T17:26:20.979Z,9.18
2022-12-18T17:28:48.241Z,9.18
2022-12-18T17:31:15.493Z,9.05
2022-12-18T17:33:43.363Z,7.70
2022-12-18T17:36:10.892Z,8.00
2022-12-18T17:38:38.204Z,7.88
2022-12-18T17:41:05.461Z,6.78
2022-12-18T17:43:35.430Z,7.35
2022-12-18T17:46:02.727Z,8.27
2022-12-18T17:48:31.021Z,7.47
2022-12-18T17:50:58.320Z,8.98
2022-12-18T17:53:27.340Z,8.15
2022-12-18T17:55:54.977Z,6.18
2022-12-18T17:58:22.184Z,7.38
2022-12-18T18:00:49.462Z,5.57
2022-12-18T18:03:16.949Z,7.38
2022-12-18T18:05:44.500Z,6.65
2022-12-18T18:08:11.822Z,6.45
2022-12-18T18:10:39.136Z,7.07
2022-12-18T18:13:25.026Z,7.45
2022-12-18T18:15:52.327Z,7.18
2022-12-18T18:18:19.526Z,6.78
2022-12-18T18:20:49.087Z,6.00
2022-12-18T18:23:16.391Z,5.78
2022-12-18T18:25:43.610Z,6.22
2022-12-18T18:28:10.794Z,6.30
2022-12-18T18:30:38.122Z,6.43
2022-12-18T18:33:11.683Z,7.03
2022-12-18T18:35:54.925Z,6.43
2022-12-18T18:38:22.388Z,5.47
2022-12-18T18:40:49.683Z,6.65
2022-12-18T18:43:16.889Z,5.72
2022-12-18T18:45:44.159Z,6.25
2022-12-18T18:48:14.109Z,6.80
2022-12-18T18:50:44.034Z,7.00
2022-12-18T18:53:11.265Z,6.28
2022-12-18T18:55:38.721Z,6.10
2022-12-18T18:58:06.299Z,6.05
2022-12-18T19:00:34.349Z,6.47
2022-12-18T19:03:02.040Z,6.90
2022-12-18T19:05:29.285Z,5.43
2022-12-18T19:07:56.746Z,5.47
2022-12-18T19:10:23.933Z,6.53
2022-12-18T19:13:10.000Z,6.03
2022-12-18T19:15:37.434Z,5.68
2022-12-18T19:18:04.842Z,7.00
2022-12-18T19:20:32.028Z,6.57
2022-12-18T19:22:59.292Z,5.45
2022-12-18T19:25:40.191Z,6.25
2022-12-18T19:28:08.304Z,6.13
2022-12-18T19:30:44.616Z,5.88
2022-12-18T19:33:42.026Z,6.85
2022-12-18T19:35:59.025Z,6.28
2022-12-18T19:38:26.212Z,5.95
2022-12-18T19:40:54.869Z,6.80
2022-12-18T19:43:23.024Z,5.75
2022-12-18T19:45:50.170Z,6.50
2022-12-18T19:48:17.396Z,6.90
2022-12-18T19:50:44.679Z,6.40
2022-12-18T19:53:11.914Z,5.90
2022-12-18T19:55:39.069Z,6.03
2022-12-18T19:58:08.728Z,5.68
2022-12-18T20:00:36.002Z,5.68
2022-12-18T20:03:12.861Z,6.25
2022-12-18T20:05:45.627Z,5.47
2022-12-18T20:08:13.003Z,5.95
2022-12-18T20:10:40.783Z,5.95
2022-12-18T20:13:08.560Z,6.03
2022-12-18T20:15:38.197Z,5.78
2022-12-18T20:18:10.721Z,6.00
2022-12-18T20:20:39.211Z,6.47
2022-12-18T20:23:07.538Z,5.57
2022-12-18T20:25:34.756Z,7.53
2022-12-18T20:28:01.990Z,6.90
2022-12-18T20:30:29.163Z,6.65
2022-12-18T20:32:56.446Z,6.72
2022-12-18T20:35:26.620Z,6.50
2022-12-18T20:37:55.640Z,8.80
2022-12-18T20:40:23.687Z,7.28
2022-12-18T20:42:50.911Z,8.10
2022-12-18T20:45:19.548Z,6.35
2022-12-18T20:47:46.820Z,6.60
2022-12-18T20:50:13.979Z,6.13
2022-12-18T20:52:41.177Z,8.98
2022-12-18T20:55:08.406Z,5.57
2022-12-18T20:57:35.743Z,5.10
2022-12-18T21:00:05.637Z,5.20
2022-12-18T21:02:32.965Z,4.65
2022-12-18T21:05:00.251Z,4.72
2022-12-18T21:07:27.599Z,4.20
2022-12-18T21:09:54.826Z,4.43
2022-12-18T21:12:34.868Z,3.80
2022-12-18T21:15:07.952Z,3.70
2022-12-18T21:17:44.147Z,4.68
2022-12-18T21:20:13.325Z,4.72
2022-12-18T21:22:45.248Z,4.25
2022-12-18T21:25:12.467Z,4.78
2022-12-18T21:27:39.678Z,5.28
2022-12-18T21:30:07.155Z,5.45
2022-12-18T21:32:34.403Z,4.63
2022-12-18T21:35:01.565Z,5.47
2022-12-18T21:37:28.779Z,5.35
2022-12-18T21:39:55.946Z,4.15
2022-12-18T21:42:42.120Z,4.82
2022-12-18T21:45:09.562Z,7.53
2022-12-18T21:47:36.742Z,5.32
2022-12-18T21:50:03.966Z,4.35
2022-12-18T21:52:32.771Z,3.13
2022-12-18T21:55:06.593Z,3.47
2022-12-18T21:57:36.203Z,4.57
2022-12-18T22:00:03.556Z,3.45
2022-12-18T22:02:39.434Z,3.28
2022-12-18T22:05:06.951Z,4.25
2022-12-18T22:07:34.436Z,4.18
2022-12-18T22:10:02.158Z,6.20
2022-12-18T22:12:44.087Z,17.73
2022-12-18T22:15:14.357Z,2.88
2022-12-18T22:17:48.485Z,3.72
2022-12-18T22:20:16.030Z,3.05
2022-12-18T22:22:43.331Z,2.40
2022-12-18T22:25:10.802Z,2.97
2022-12-18T22:27:38.032Z,2.13
2022-12-18T22:30:05.245Z,2.30
2022-12-18T22:32:32.631Z,2.42
2022-12-18T22:35:05.203Z,1.88
2022-12-18T22:37:33.368Z,2.88
2022-12-18T22:40:03.233Z,1.90
2022-12-18T22:42:31.241Z,2.25
2022-12-18T22:44:58.614Z,2.15
2022-12-18T22:47:29.733Z,2.10
2022-12-18T22:49:57.757Z,1.92
2022-12-18T22:52:26.864Z,1.55
2022-12-18T22:54:54.435Z,1.75
2022-12-18T22:57:21.929Z,1.60
2022-12-18T22:59:49.290Z,2.00
2022-12-18T23:02:17.879Z,1.95
2022-12-18T23:04:45.290Z,2.92
2022-12-18T23:07:12.730Z,2.53
2022-12-18T23:09:40.029Z,2.58
2022-12-18T23:12:07.269Z,2.88
2022-12-18T23:14:34.435Z,3.35
2022-12-18T23:17:01.631Z,2.75
2022-12-18T23:19:29.132Z,2.70
2022-12-18T23:21:58.842Z,2.88
2022-12-18T23:24:26.104Z,2.72
2022-12-18T23:26:53.233Z,2.53
2022-12-18T23:29:20.556Z,2.58
2022-12-18T23:31:47.822Z,2.50
2022-12-18T23:34:15.067Z,2.25
2022-12-18T23:36:46.068Z,2.65
2022-12-18T23:39:15.488Z,2.17
2022-12-18T23:41:56.373Z,2.00
2022-12-18T23:44:23.538Z,2.03
2022-12-18T23:46:50.864Z,1.60
2022-12-18T23:49:18.129Z,1.75
2022-12-18T23:51:45.493Z,1.48
2022-12-18T23:54:12.652Z,1.77
2022-12-18T23:56:39.951Z,1.77
2022-12-18T23:59:07.108Z,1.33
